createdAt,value
2022-12-08T00:01:05.882Z,55.08
2022-12-08T00:03:34.284Z,54.87
2022-12-08T00:06:20.478Z,54.74
2022-12-08T00:09:05.795Z,54.63
2022-12-08T00:11:34.354Z,54.17
2022-12-08T00:14:03.799Z,54.25
2022-12-08T00:16:31.751Z,54.38
2022-12-08T00:18:59.685Z,54.41
2022-12-08T00:21:30.699Z,54.13
2022-12-08T00:23:58.582Z,54.58
2022-12-08T00:26:26.445Z,54.26
2022-12-08T00:28:54.386Z,54.28
2022-12-08T00:31:23.672Z,54.28
2022-12-08T00:33:51.683Z,54.11
2022-12-08T00:36:19.560Z,54.25
2022-12-08T00:38:48.462Z,54.97
2022-12-08T00:41:17.635Z,55.01
2022-12-08T00:43:45.604Z,55.08
2022-12-08T00:46:13.627Z,54.77
2022-12-08T00:48:42.940Z,54.85
2022-12-08T00:51:10.841Z,54.48
2022-12-08T00:53:38.727Z,54.20
2022-12-08T00:56:06.952Z,54.06
2022-12-08T00:58:34.814Z,54.23
2022-12-08T01:01:02.809Z,54.09
2022-12-08T01:03:30.778Z,54.09
2022-12-08T01:06:03.686Z,54.21
2022-12-08T01:08:31.616Z,54.17
2022-12-08T01:11:04.342Z,54.44
2022-12-08T01:13:32.226Z,54.62
2022-12-08T01:16:00.112Z,54.17
2022-12-08T01:18:28.135Z,54.15
2022-12-08T01:20:56.099Z,54.58
2022-12-08T01:23:25.402Z,54.53
2022-12-08T01:25:53.277Z,54.65
2022-12-08T01:28:21.232Z,54.72
2022-12-08T01:30:49.126Z,54.49
2022-12-08T01:33:17.048Z,54.68
2022-12-08T01:35:44.941Z,54.28
2022-12-08T01:38:12.850Z,54.75
2022-12-08T01:40:42.152Z,54.73
2022-12-08T01:43:11.162Z,54.93
2022-12-08T01:45:39.185Z,54.75
2022-12-08T01:48:08.877Z,55.32
2022-12-08T01:50:36.874Z,54.99
2022-12-08T01:53:08.075Z,55.37
2022-12-08T01:55:38.261Z,55.09
2022-12-08T01:58:09.614Z,54.96
2022-12-08T02:00:37.544Z,54.96
2022-12-08T02:03:06.441Z,54.80
2022-12-08T02:05:35.302Z,54.56
2022-12-08T02:08:06.705Z,54.65
2022-12-08T02:10:36.010Z,54.42
2022-12-08T02:13:03.984Z,54.73
2022-12-08T02:15:36.216Z,54.79
2022-12-08T02:18:10.497Z,54.96
2022-12-08T02:20:52.407Z,54.72
2022-12-08T02:23:25.607Z,55.19
2022-12-08T02:26:25.835Z,55.24
2022-12-08T02:29:08.970Z,55.41
2022-12-08T02:31:44.762Z,55.42
2022-12-08T02:34:19.612Z,55.43
2022-12-08T02:36:51.358Z,55.44
2022-12-08T02:39:26.074Z,55.47
2022-12-08T02:41:56.820Z,55.10
2022-12-08T02:44:28.046Z,54.92
2022-12-08T02:46:58.464Z,54.85
2022-12-08T02:49:31.192Z,55.14
2022-12-08T02:52:09.330Z,55.21
2022-12-08T02:54:37.215Z,54.90
2022-12-08T02:57:19.263Z,54.77
2022-12-08T02:59:57.715Z,55.02
2022-12-08T03:02:38.834Z,54.97
2022-12-08T03:05:11.464Z,55.05
2022-12-08T03:07:41.140Z,55.00
2022-12-08T03:10:11.357Z,54.96
2022-12-08T03:12:41.110Z,55.12
2022-12-08T03:15:10.441Z,55.09
2022-12-08T03:17:38.386Z,55.16
2022-12-08T03:20:10.201Z,55.17
2022-12-08T03:22:38.079Z,55.34
2022-12-08T03:25:06.846Z,54.99
2022-12-08T03:27:34.732Z,55.19
2022-12-08T03:30:02.871Z,55.26
2022-12-08T03:32:34.309Z,54.87
2022-12-08T03:35:04.405Z,54.57
2022-12-08T03:37:35.537Z,54.80
2022-12-08T03:40:03.902Z,54.66
2022-12-08T03:42:31.957Z,54.28
2022-12-08T03:44:59.907Z,54.97
2022-12-08T03:47:27.786Z,54.77
2022-12-08T03:49:55.651Z,54.79
2022-12-08T03:52:23.579Z,54.93
2022-12-08T03:54:52.824Z,55.27
2022-12-08T03:57:21.659Z,55.13
2022-12-08T03:59:49.578Z,55.57
2022-12-08T04:02:17.601Z,56.31
2022-12-08T04:04:45.551Z,55.98
2022-12-08T04:07:13.479Z,55.90
2022-12-08T04:09:42.187Z,56.06
2022-12-08T04:12:11.504Z,56.63
2022-12-08T04:14:39.386Z,55.90
2022-12-08T04:17:07.320Z,56.01
2022-12-08T04:19:35.200Z,55.93
2022-12-08T04:22:03.090Z,56.12
2022-12-08T04:24:31.031Z,56.05
2022-12-08T04:26:58.905Z,55.62
2022-12-08T04:29:28.157Z,56.04
2022-12-08T04:31:56.114Z,55.82
2022-12-08T04:34:24.233Z,55.81
2022-12-08T04:36:52.085Z,55.98
2022-12-08T04:39:19.964Z,55.61
2022-12-08T04:41:47.912Z,55.73
2022-12-08T04:44:15.810Z,55.75
2022-12-08T04:46:45.099Z,55.57
2022-12-08T04:49:13.094Z,55.34
2022-12-08T04:51:40.965Z,55.81
2022-12-08T04:54:08.864Z,56.07
2022-12-08T04:56:36.801Z,56.21
2022-12-08T04:59:04.688Z,55.84
2022-12-08T05:01:33.882Z,55.87
2022-12-08T05:04:03.223Z,56.26
2022-12-08T05:06:31.176Z,56.04
2022-12-08T05:08:59.058Z,55.92
2022-12-08T05:11:26.938Z,55.85
2022-12-08T05:13:54.953Z,56.08
2022-12-08T05:16:22.884Z,55.84
2022-12-08T05:18:50.806Z,56.38
2022-12-08T05:21:20.133Z,55.85
2022-12-08T05:23:48.066Z,56.37
2022-12-08T05:26:15.930Z,56.17
2022-12-08T05:28:44.300Z,55.79
2022-12-08T05:31:12.533Z,56.50
2022-12-08T05:33:40.599Z,56.96
2022-12-08T05:36:08.878Z,56.94
2022-12-08T05:38:38.208Z,56.60
2022-12-08T05:41:07.189Z,56.47
2022-12-08T05:43:35.147Z,56.32
2022-12-08T05:46:03.059Z,56.24
2022-12-08T05:48:30.963Z,56.41
2022-12-08T05:50:58.859Z,56.31
2022-12-08T05:53:26.792Z,56.06
2022-12-08T05:55:56.044Z,56.27
2022-12-08T05:58:24.202Z,56.08
2022-12-08T06:00:52.141Z,56.04
2022-12-08T06:03:20.123Z,56.34
2022-12-08T06:05:48.200Z,56.31
2022-12-08T06:08:16.158Z,56.18
2022-12-08T06:10:44.639Z,56.10
2022-12-08T06:13:13.960Z,55.80
2022-12-08T06:15:41.838Z,56.02
2022-12-08T06:18:10.704Z,55.90
2022-12-08T06:20:38.635Z,55.71
2022-12-08T06:23:06.529Z,55.50
2022-12-08T06:25:34.512Z,55.02
2022-12-08T06:28:02.383Z,55.37
2022-12-08T06:30:31.651Z,55.10
2022-12-08T06:33:00.116Z,55.34
2022-12-08T06:35:28.006Z,55.33
2022-12-08T06:37:55.920Z,56.41
2022-12-08T06:40:23.890Z,56.64
2022-12-08T06:42:51.827Z,56.57
2022-12-08T06:45:19.841Z,56.53
2022-12-08T06:47:49.089Z,56.87
2022-12-08T06:50:16.986Z,56.99
2022-12-08T06:52:57.043Z,56.65
2022-12-08T06:58:18.760Z,56.48
2022-12-08T07:00:46.799Z,56.76
2022-12-08T07:03:16.216Z,56.05
2022-12-08T07:05:44.353Z,56.16
2022-12-08T07:08:12.499Z,55.85
2022-12-08T07:10:40.472Z,55.65
2022-12-08T07:13:08.374Z,55.85
2022-12-08T07:15:36.289Z,56.32
2022-12-08T07:18:04.279Z,55.64
2022-12-08T07:20:33.532Z,55.70
2022-12-08T07:23:01.439Z,55.57
2022-12-08T07:25:29.385Z,55.73
2022-12-08T07:27:57.268Z,55.80
2022-12-08T07:30:25.247Z,55.67
2022-12-08T07:32:53.297Z,55.72
2022-12-08T07:35:22.182Z,55.58
2022-12-08T07:37:52.297Z,55.34
2022-12-08T07:40:20.351Z,55.69
2022-12-08T07:42:48.224Z,55.56
2022-12-08T07:45:16.205Z,55.26
2022-12-08T07:47:44.071Z,55.33
2022-12-08T07:50:12.177Z,55.35
2022-12-08T07:52:40.088Z,55.24
2022-12-08T07:55:10.516Z,55.04
2022-12-08T07:57:38.411Z,55.20
2022-12-08T08:00:07.845Z,55.05
2022-12-08T08:02:36.151Z,55.05
2022-12-08T08:05:04.494Z,54.98
2022-12-08T08:07:32.625Z,54.90
2022-12-08T08:10:00.492Z,54.91
2022-12-08T08:12:31.698Z,54.97
2022-12-08T08:15:00.232Z,54.90
2022-12-08T08:17:28.485Z,55.02
2022-12-08T08:19:56.597Z,54.96
2022-12-08T08:22:24.478Z,55.09
2022-12-08T08:24:52.385Z,54.99
2022-12-08T08:27:20.295Z,54.71
2022-12-08T08:29:49.560Z,54.77
2022-12-08T08:32:17.482Z,54.87
2022-12-08T08:34:45.367Z,54.73
2022-12-08T08:37:13.337Z,54.93
2022-12-08T08:39:43.012Z,54.66
2022-12-08T08:42:13.835Z,54.83
2022-12-08T08:44:41.757Z,54.42
2022-12-08T08:47:11.099Z,54.55
2022-12-08T08:49:39.029Z,54.53
2022-12-08T08:52:07.037Z,54.15
2022-12-08T08:54:35.514Z,54.12
2022-12-08T08:57:03.473Z,54.16
2022-12-08T08:59:31.445Z,54.16
2022-12-08T09:01:59.455Z,54.18
2022-12-08T09:04:28.869Z,54.40
2022-12-08T09:06:56.820Z,54.15
2022-12-08T09:09:24.684Z,54.39
2022-12-08T09:11:52.586Z,54.40
2022-12-08T09:14:20.507Z,54.14
2022-12-08T09:16:48.499Z,54.15
2022-12-08T09:19:16.419Z,54.08
2022-12-08T09:21:45.704Z,53.83
2022-12-08T09:24:15.966Z,54.03
2022-12-08T09:26:44.367Z,54.21
2022-12-08T09:29:13.713Z,54.06
2022-12-08T09:31:41.844Z,53.71
2022-12-08T09:34:10.151Z,53.75
2022-12-08T09:36:38.044Z,53.74
2022-12-08T09:39:07.481Z,53.74
2022-12-08T09:41:43.297Z,53.61
2022-12-08T09:44:27.062Z,53.85
2022-12-08T09:46:55.198Z,53.83
2022-12-08T09:49:24.576Z,53.81
2022-12-08T09:51:52.436Z,53.70
2022-12-08T09:54:24.056Z,53.56
2022-12-08T09:56:52.528Z,53.37
2022-12-08T09:59:24.122Z,53.40
2022-12-08T10:01:52.667Z,53.63
2022-12-08T10:04:24.030Z,53.27
2022-12-08T10:06:58.892Z,53.48
2022-12-08T10:09:32.171Z,53.23
2022-12-08T10:12:01.637Z,53.27
2022-12-08T10:14:32.528Z,52.93
2022-12-08T10:17:02.266Z,53.54
2022-12-08T10:19:30.215Z,53.11
2022-12-08T10:21:58.236Z,53.17
2022-12-08T10:24:32.553Z,53.54
2022-12-08T10:27:00.431Z,53.26
2022-12-08T10:29:28.347Z,53.52
2022-12-08T10:31:57.594Z,53.31
2022-12-08T10:34:25.494Z,53.33
2022-12-08T10:36:54.708Z,53.50
2022-12-08T10:39:34.868Z,53.43
2022-12-08T10:42:04.255Z,53.61
2022-12-08T10:44:32.144Z,53.23
2022-12-08T10:47:00.066Z,53.58
2022-12-08T10:49:28.942Z,53.29
2022-12-08T10:51:57.865Z,53.44
2022-12-08T10:54:29.773Z,53.30
2022-12-08T10:56:59.052Z,53.37
2022-12-08T10:59:27.023Z,53.36
2022-12-08T11:01:55.778Z,53.51
2022-12-08T11:04:24.987Z,53.82
2022-12-08T11:06:52.926Z,53.63
2022-12-08T11:09:34.083Z,53.53
2022-12-08T11:12:07.949Z,53.26
2022-12-08T11:14:47.951Z,53.39
2022-12-08T11:17:16.745Z,53.54
2022-12-08T11:19:47.591Z,53.50
2022-12-08T11:22:23.067Z,53.40
2022-12-08T11:24:58.319Z,52.99
2022-12-08T11:27:27.651Z,53.21
2022-12-08T11:29:55.546Z,53.16
2022-12-08T11:32:23.461Z,53.38
2022-12-08T11:34:53.052Z,53.05
2022-12-08T11:37:23.782Z,53.07
2022-12-08T11:39:52.956Z,52.95
2022-12-08T11:42:21.951Z,52.86
2022-12-08T11:44:52.529Z,53.21
2022-12-08T11:47:21.802Z,53.20
2022-12-08T11:49:49.782Z,52.98
2022-12-08T11:52:20.578Z,53.09
2022-12-08T11:54:49.962Z,52.93
2022-12-08T11:57:20.805Z,53.02
2022-12-08T11:59:51.552Z,53.14
2022-12-08T12:02:20.980Z,53.06
2022-12-08T12:04:50.674Z,52.89
2022-12-08T12:07:34.738Z,53.04
2022-12-08T12:10:14.072Z,52.71
2022-12-08T12:12:50.753Z,52.94
2022-12-08T12:15:50.688Z,53.06
2022-12-08T12:18:21.177Z,52.90
2022-12-08T12:20:52.665Z,52.72
2022-12-08T12:23:22.169Z,52.88
2022-12-08T12:25:55.326Z,53.24
2022-12-08T12:28:24.092Z,53.77
2022-12-08T12:30:56.604Z,53.51
2022-12-08T12:33:24.763Z,53.26
2022-12-08T12:35:52.620Z,53.15
2022-12-08T12:38:40.753Z,52.82
2022-12-08T12:41:08.620Z,52.79
2022-12-08T12:43:37.289Z,52.73
2022-12-08T12:49:48.791Z,52.77
2022-12-08T12:52:40.784Z,52.75
2022-12-08T12:55:27.742Z,53.05
2022-12-08T12:57:56.320Z,52.78
2022-12-08T13:00:25.081Z,53.16
2022-12-08T13:02:53.045Z,53.36
2022-12-08T13:05:21.825Z,52.88
2022-12-08T13:07:53.286Z,53.04
2022-12-08T13:10:22.748Z,53.18
2022-12-08T13:13:03.770Z,53.34
2022-12-08T13:15:35.691Z,52.93
2022-12-08T13:18:03.583Z,53.40
2022-12-08T13:20:31.507Z,52.96
2022-12-08T13:23:12.476Z,53.04
2022-12-08T13:25:47.229Z,53.23
2022-12-08T13:28:21.983Z,52.75
2022-12-08T13:30:50.322Z,53.12
2022-12-08T13:33:20.200Z,52.93
2022-12-08T13:35:54.833Z,52.98
2022-12-08T13:38:24.098Z,53.12
2022-12-08T13:40:52.231Z,52.83
2022-12-08T13:43:47.390Z,53.08
2022-12-08T13:50:55.740Z,52.73
2022-12-08T13:54:09.910Z,52.83
2022-12-08T13:56:24.856Z,52.77
2022-12-08T13:57:55.342Z,53.04
2022-12-08T14:00:27.468Z,52.86
2022-12-08T14:02:57.455Z,53.03
2022-12-08T14:05:47.572Z,53.29
2022-12-08T14:08:36.381Z,52.92
2022-12-08T14:11:09.362Z,53.15
2022-12-08T14:13:37.248Z,53.09
2022-12-08T14:16:05.195Z,52.85
2022-12-08T14:18:33.112Z,53.06
2022-12-08T14:21:20.407Z,52.77
2022-12-08T14:23:49.230Z,52.77
2022-12-08T14:26:19.056Z,53.01
2022-12-08T14:28:46.964Z,52.60
2022-12-08T14:31:15.109Z,52.96
2022-12-08T14:33:43.237Z,52.83
2022-12-08T14:36:11.169Z,53.18
2022-12-08T14:38:39.155Z,52.60
2022-12-08T14:41:07.841Z,52.73
2022-12-08T14:43:37.161Z,52.91
2022-12-08T14:46:06.372Z,52.93
2022-12-08T14:48:45.880Z,52.60
2022-12-08T14:51:17.610Z,52.83
2022-12-08T14:53:46.823Z,52.57
2022-12-08T14:56:20.076Z,52.84
2022-12-08T14:58:49.638Z,52.92
2022-12-08T15:01:19.107Z,52.65
2022-12-08T15:03:50.952Z,52.67
2022-12-08T15:06:19.474Z,52.67
2022-12-08T15:08:55.864Z,52.91
2022-12-08T15:11:41.715Z,52.81
2022-12-08T15:14:29.599Z,52.71
2022-12-08T15:16:57.635Z,52.93
2022-12-08T15:19:29.549Z,52.67
2022-12-08T15:21:58.713Z,52.96
2022-12-08T15:24:27.870Z,52.85
2022-12-08T15:26:55.720Z,52.93
2022-12-08T15:29:25.542Z,52.56
2022-12-08T15:31:56.874Z,52.92
2022-12-08T15:34:24.838Z,52.58
2022-12-08T15:36:53.717Z,52.67
2022-12-08T15:39:32.988Z,52.65
2022-12-08T15:42:01.134Z,52.71
2022-12-08T15:44:29.295Z,52.58
2022-12-08T15:46:58.633Z,52.68
2022-12-08T15:49:26.602Z,52.59
2022-12-08T15:52:02.004Z,52.69
2022-12-08T15:54:36.040Z,52.85
2022-12-08T15:57:19.012Z,52.75
2022-12-08T15:59:50.043Z,52.76
2022-12-08T16:02:22.573Z,52.84
2022-12-08T16:07:39.569Z,52.88
2022-12-08T16:10:09.111Z,52.63
2022-12-08T16:13:54.907Z,52.71
2022-12-08T16:15:59.084Z,52.71
2022-12-08T16:18:31.239Z,52.76
2022-12-08T16:21:12.421Z,52.61
2022-12-08T16:23:47.144Z,52.66
2022-12-08T16:26:28.653Z,52.55
2022-12-08T16:29:03.613Z,52.75
2022-12-08T16:31:31.585Z,52.35
2022-12-08T16:34:00.956Z,52.82
2022-12-08T16:36:28.874Z,52.60
2022-12-08T16:38:56.742Z,52.52
2022-12-08T16:41:42.154Z,52.89
2022-12-08T16:44:10.018Z,52.58
2022-12-08T16:46:37.919Z,52.89
2022-12-08T16:49:07.396Z,52.61
2022-12-08T16:51:35.356Z,52.68
2022-12-08T16:54:03.260Z,52.49
2022-12-08T16:56:33.485Z,52.84
2022-12-08T16:59:01.713Z,52.73
2022-12-08T17:01:29.697Z,52.58
2022-12-08T17:06:46.927Z,52.50
2022-12-08T17:09:14.808Z,52.67
2022-12-08T17:11:43.846Z,52.76
2022-12-08T17:14:12.198Z,52.64
2022-12-08T17:16:40.167Z,52.63
2022-12-08T17:19:08.273Z,52.52
2022-12-08T17:21:36.204Z,52.89
2022-12-08T17:24:05.744Z,52.64
2022-12-08T17:26:33.679Z,52.55
2022-12-08T17:29:02.545Z,52.71
2022-12-08T17:31:31.308Z,52.55
2022-12-08T17:34:00.006Z,52.76
2022-12-08T17:36:27.955Z,52.58
2022-12-08T17:38:55.951Z,52.61
2022-12-08T17:41:25.210Z,52.56
2022-12-08T17:43:53.089Z,52.52
2022-12-08T17:46:21.366Z,52.90
2022-12-08T17:48:49.482Z,52.77
2022-12-08T17:51:17.366Z,52.79
2022-12-08T17:53:45.315Z,52.64
2022-12-08T17:56:17.034Z,52.87
2022-12-08T17:58:49.897Z,52.71
2022-12-08T18:01:22.149Z,52.82
2022-12-08T18:03:50.129Z,52.78
2022-12-08T18:06:18.173Z,52.82
2022-12-08T18:08:46.407Z,53.17
2022-12-08T18:11:15.152Z,53.39
2022-12-08T18:13:43.270Z,53.31
2022-12-08T18:16:12.688Z,53.14
2022-12-08T18:18:40.579Z,53.23
2022-12-08T18:21:08.500Z,53.42
2022-12-08T18:23:37.106Z,53.30
2022-12-08T18:26:05.379Z,53.64
2022-12-08T18:28:36.653Z,53.18
2022-12-08T18:31:08.646Z,53.44
2022-12-08T18:33:37.970Z,53.37
2022-12-08T18:36:09.379Z,53.68
2022-12-08T18:38:37.526Z,53.46
2022-12-08T18:41:06.772Z,53.32
2022-12-08T18:43:34.792Z,53.32
2022-12-08T18:46:03.346Z,53.40
2022-12-08T18:48:31.365Z,53.31
2022-12-08T18:51:00.616Z,53.45
2022-12-08T18:53:28.533Z,53.28
2022-12-08T18:55:56.426Z,53.39
2022-12-08T18:58:27.181Z,53.41
2022-12-08T19:00:55.118Z,53.26
2022-12-08T19:03:23.211Z,53.37
2022-12-08T19:05:51.156Z,53.19
2022-12-08T19:08:20.738Z,53.29
2022-12-08T19:10:48.686Z,53.35
2022-12-08T19:13:19.704Z,53.33
2022-12-08T19:15:47.613Z,53.39
2022-12-08T19:18:15.695Z,53.51
2022-12-08T19:20:43.580Z,53.73
2022-12-08T19:23:12.805Z,53.69
2022-12-08T19:25:42.101Z,53.91
2022-12-08T19:28:10.023Z,54.00
2022-12-08T19:30:38.045Z,54.09
2022-12-08T19:33:06.361Z,54.08
2022-12-08T19:35:34.280Z,53.84
2022-12-08T19:38:02.166Z,53.94
2022-12-08T19:40:47.596Z,53.76
2022-12-08T19:43:40.606Z,54.12
2022-12-08T19:46:08.749Z,54.26
2022-12-08T19:48:36.793Z,54.20
2022-12-08T19:51:04.712Z,54.13
2022-12-08T19:53:32.742Z,54.23
2022-12-08T19:56:00.680Z,53.99
2022-12-08T19:58:29.975Z,53.90
2022-12-08T20:00:57.885Z,54.03
2022-12-08T20:03:25.829Z,54.17
2022-12-08T20:05:53.868Z,54.11
2022-12-08T20:08:21.873Z,54.22
2022-12-08T20:10:49.810Z,54.16
2022-12-08T20:13:35.024Z,54.19
2022-12-08T20:16:04.340Z,54.35
2022-12-08T20:18:36.048Z,54.51
2022-12-08T20:21:04.196Z,54.51
2022-12-08T20:23:32.102Z,54.49
2022-12-08T20:26:00.106Z,54.26
2022-12-08T20:28:28.042Z,54.21
2022-12-08T20:30:56.102Z,54.28
2022-12-08T20:33:25.443Z,54.51
2022-12-08T20:35:59.312Z,54.61
2022-12-08T20:38:27.368Z,54.49
2022-12-08T20:40:55.437Z,54.62
2022-12-08T20:43:23.536Z,54.41
2022-12-08T20:45:51.448Z,54.53
2022-12-08T20:48:19.342Z,54.38
2022-12-08T20:50:51.046Z,54.34
2022-12-08T20:53:18.997Z,54.79
2022-12-08T20:55:46.928Z,55.08
2022-12-08T20:58:15.039Z,55.26
2022-12-08T21:00:42.965Z,55.12
2022-12-08T21:03:11.080Z,54.48
2022-12-08T21:05:39.512Z,54.92
2022-12-08T21:08:09.024Z,55.25
2022-12-08T21:10:43.526Z,55.27
2022-12-08T21:13:11.903Z,55.24
2022-12-08T21:15:39.929Z,55.34
2022-12-08T21:18:07.941Z,55.28
2022-12-08T21:20:36.125Z,55.58
2022-12-08T21:23:04.337Z,55.40
2022-12-08T21:25:43.331Z,55.50
2022-12-08T21:28:11.191Z,55.43
2022-12-08T21:30:42.093Z,55.73
2022-12-08T21:33:10.162Z,55.72
2022-12-08T21:35:38.236Z,55.75
2022-12-08T21:38:06.491Z,55.71
2022-12-08T21:40:35.224Z,55.77
2022-12-08T21:43:04.579Z,55.60
2022-12-08T21:45:32.949Z,55.95
2022-12-08T21:48:04.549Z,55.67
2022-12-08T21:50:40.048Z,55.18
2022-12-08T21:53:10.876Z,54.96
2022-12-08T21:55:38.800Z,55.08
2022-12-08T21:58:11.267Z,54.68
2022-12-08T22:00:42.296Z,55.10
2022-12-08T22:03:14.139Z,55.12
2022-12-08T22:05:45.020Z,55.18
2022-12-08T22:08:12.873Z,55.12
2022-12-08T22:10:48.012Z,54.93
2022-12-08T22:13:20.511Z,55.05
2022-12-08T22:15:58.361Z,55.12
2022-12-08T22:18:32.783Z,55.03
2022-12-08T22:21:00.856Z,54.96
2022-12-08T22:23:28.989Z,55.15
2022-12-08T22:25:58.398Z,55.98
2022-12-08T22:28:27.672Z,56.23
2022-12-08T22:30:58.665Z,56.18
2022-12-08T22:33:26.644Z,56.04
2022-12-08T22:35:57.961Z,56.13
2022-12-08T22:38:32.010Z,56.09
2022-12-08T22:40:59.944Z,56.02
2022-12-08T22:43:29.524Z,56.22
2022-12-08T22:45:57.475Z,56.23
2022-12-08T22:48:28.161Z,56.36
2022-12-08T22:50:59.674Z,56.30
2022-12-08T22:53:27.626Z,56.41
2022-12-08T22:55:55.693Z,56.38
2022-12-08T22:58:23.693Z,56.54
2022-12-08T23:00:53.314Z,56.53
2022-12-08T23:03:21.238Z,56.44
2022-12-08T23:05:49.310Z,56.40
2022-12-08T23:08:17.905Z,56.52
2022-12-08T23:10:46.669Z,56.54
2022-12-08T23:13:14.840Z,56.35
2022-12-08T23:15:43.053Z,56.14
2022-12-08T23:18:13.900Z,55.80
2022-12-08T23:20:41.887Z,55.99
2022-12-08T23:23:09.861Z,56.07
2022-12-08T23:25:40.925Z,55.88
2022-12-08T23:28:09.032Z,55.83
2022-12-08T23:30:37.144Z,55.86
2022-12-08T23:33:08.379Z,55.71
2022-12-08T23:35:37.713Z,55.68
2022-12-08T23:38:05.637Z,55.65
2022-12-08T23:40:33.679Z,55.76
2022-12-08T23:43:01.629Z,55.60
2022-12-08T23:45:29.670Z,56.30
2022-12-08T23:47:57.664Z,56.22
2022-12-08T23:50:25.664Z,56.50
2022-12-08T23:52:54.969Z,56.36
2022-12-08T23:55:23.006Z,56.48
2022-12-08T23:57:51.086Z,56.45
